Observations for MANCHESTER INTL, United Kingdom (EGCC)

EGCC 260450Z VRB01KT 0600 R23R/P1500 FG BKN001 13/13 Q1019 TEMPO 1500 BR
EGCC 260420Z VRB01KT 2400 1000W R23R/0275 BR NSC 13/13 Q1019 NOSIG  
EGCC 260350Z 21001KT 2400 BR NSC 13/12 Q1019 TEMPO 5000 
EGCC 260320Z VRB01KT 5000 HZ NSC 13/12 Q1019 TEMPO 3000 
EGCC 260250Z VRB01KT 5000 BR NSC 13/13 Q1019 TEMPO 3500 
EGCC 260220Z VRB01KT 5000 BR NSC 14/13 Q1019 TEMPO 3500 
EGCC 260150Z 22002KT 5000 BR NSC 14/13 Q1019 NOSIG  
EGCC 260120Z AUTO 21001KT 2600 BR NCD 14/14 Q1019 NOSIG 
EGCC 260050Z AUTO VRB01KT 5000 HZ NCD 14/14 Q1019 NOSIG 
EGCC 260020Z AUTO 22001KT 4700 BR NCD 15/14 Q1019 TEMPO 6000
EGCC 252350Z AUTO VRB02KT 6000 NCD 15/14 Q1019 NOSIG
EGCC 252320Z AUTO 25003KT 7000 NCD 15/14 Q1019 NOSIG
EGCC 252250Z AUTO 25002KT 9000 NCD 15/14 Q1019 NOSIG
EGCC 252220Z AUTO 27002KT 9999 NCD 17/15 Q1019 NOSIG
EGCC 252150Z AUTO 26003KT 9999 NCD 16/15 Q1019 NOSIG
EGCC 252120Z AUTO 29004KT 9999 NCD 17/15 Q1019 NOSIG
EGCC 252050Z AUTO 30004KT 280V340 9999 NCD 18/15 Q1019 NOSIG
EGCC 252020Z AUTO 30005KT 9999 NCD 18/15 Q1019 NOSIG
EGCC 251950Z AUTO 30006KT 9999 NCD 18/15 Q1019 NOSIG
EGCC 251920Z AUTO 29004KT 9999 NCD 19/15 Q1019 NOSIG
EGCC 251850Z AUTO 29005KT 260V320 9999 NCD 20/16 Q1018 NOSIG
EGCC 251820Z AUTO 29007KT 9999 NCD 21/16 Q1018 NOSIG
EGCC 251750Z AUTO 28006KT 9999 NCD 22/16 Q1018 NOSIG
EGCC 251720Z AUTO 31008KT 9999 NCD 22/17 Q1018 NOSIG
EGCC 251650Z AUTO 29013KT 9999 NCD 24/17 Q1017 NOSIG
EGCC 251620Z AUTO 20007KT 170V240 9999 NCD 29/14 Q1017 NOSIG
EGCC 251550Z AUTO 16005KT 120V220 9999 NCD 29/15 Q1017 NOSIG
EGCC 251520Z AUTO 16006KT 100V220 9999 NCD 29/15 Q1017 NOSIG
EGCC 251450Z AUTO VRB05KT 9999 NCD 29/15 Q1017 NOSIG
EGCC 251420Z 15005KT 100V240 CAVOK 29/14 Q1017 NOSIG
EGCC 251350Z 15006KT 100V220 CAVOK 29/14 Q1017 NOSIG
EGCC 251320Z AUTO 15007KT 080V230 9999 NCD 29/13 Q1017 NOSIG
EGCC 251250Z AUTO VRB05KT 9999 NCD 29/13 Q1017 NOSIG
EGCC 251220Z AUTO 13006KT 050V170 9999 NCD 28/13 Q1017 NOSIG
EGCC 251150Z AUTO 13006KT 050V190 9999 NCD 28/13 Q1017 NOSIG
EGCC 251120Z AUTO VRB05KT 9999 NCD 27/13 Q1018 NOSIG
EGCC 251050Z AUTO VRB05KT 9999 NCD 27/14 Q1018 NOSIG
EGCC 251020Z AUTO 17004KT 090V230 9999 NCD 26/14 Q1018 NOSIG
EGCC 250950Z AUTO VRB04KT 9999 NCD 26/14 Q1018 NOSIG
EGCC 250920Z AUTO VRB01KT 9999 NCD 25/14 Q1018 NOSIG
EGCC 250850Z AUTO VRB01KT 9999 NCD 24/14 Q1018 NOSIG
EGCC 250820Z AUTO 03003KT 9999 NCD 23/14 Q1018 NOSIG
EGCC 250750Z AUTO 05003KT 9999 NCD 21/14 Q1018 NOSIG
EGCC 250720Z AUTO 04004KT 9999 NCD 20/14 Q1017 NOSIG
EGCC 250650Z AUTO 05004KT 9999 NCD 19/13 Q1017 NOSIG
EGCC 250620Z AUTO 07002KT 9999 NCD 19/13 Q1017 NOSIG
EGCC 250550Z AUTO 07003KT 9999 NCD 18/12 Q1017 NOSIG
EGCC 250520Z AUTO 11002KT 9999 NCD 16/12 Q1017 NOSIG
EGCC 250450Z AUTO 07002KT 9999 NCD 17/12 Q1017 NOSIG
EGCC 250420Z AUTO 08003KT 9999 NCD 17/12 Q1017 NOSIG